Time;durP1;ratioP1;P1;durP2;ratioP2;P2;SDS_P1;SDS_P2;PMS_P1;PMS_P2;Temp;Humidity;BMP_temperature;BMP_pressure;BME280_temperature;BME280_humidity;BME280_pressure;Samples;Min_cycle;Max_cycle;Signal;HPM_P1;HPM_P2
2021/11/04 00:01:49;;;;;;;5.37;5.10;;;;;;;5.96;100.00;99836.09;4385089;32;20609;-76
2021/11/04 00:04:14;;;;;;;3.50;3.40;;;;;;;6.15;100.00;99866.50;4343386;32;20074;-76
2021/11/04 00:06:39;;;;;;;5.07;4.80;;;;;;;6.11;100.00;99857.97;4397863;32;20336;-76
2021/11/04 00:09:05;;;;;;;3.78;3.65;;;;;;;6.16;100.00;99855.16;4365966;32;20852;-77
2021/11/04 00:11:30;;;;;;;7.00;4.55;;;;;;;6.04;100.00;99850.53;4350216;32;20127;-76
2021/11/04 00:13:56;;;;;;;4.25;4.05;;;;;;;5.85;100.00;99798.44;4348235;32;20069;-76
2021/11/04 00:16:21;;;;;;;5.03;4.55;;;;;;;6.13;100.00;99855.28;4326507;32;20066;-76
2021/11/04 00:18:47;;;;;;;7.53;6.60;;;;;;;5.66;100.00;99772.44;4389903;32;20599;-76
2021/11/04 00:21:12;;;;;;;3.95;3.67;;;;;;;5.58;100.00;99760.59;4333952;32;20518;-77
2021/11/04 00:23:37;;;;;;;3.90;3.75;;;;;;;5.08;100.00;99690.09;4389040;32;20162;-76
2021/11/04 00:26:03;;;;;;;3.60;3.50;;;;;;;5.69;100.00;99791.34;4343451;32;20124;-75
2021/11/04 00:28:28;;;;;;;3.83;3.65;;;;;;;5.48;100.00;99751.53;4349785;32;20701;-76
2021/11/04 00:30:53;;;;;;;4.93;4.72;;;;;;;6.10;100.00;99855.47;4396667;32;20063;-76
2021/11/04 00:33:19;;;;;;;3.42;3.33;;;;;;;5.94;100.00;99835.31;4336059;32;20080;-77
2021/11/04 00:35:44;;;;;;;5.20;4.90;;;;;;;5.88;100.00;99824.34;4392165;32;20493;-77
2021/11/04 00:38:10;;;;;;;3.78;3.65;;;;;;;4.53;100.00;99597.25;4338244;32;20070;-77
2021/11/04 00:40:35;;;;;;;4.40;4.10;;;;;;;5.54;100.00;99772.06;4396440;32;20441;-76
2021/11/04 00:43:01;;;;;;;3.40;3.30;;;;;;;4.83;100.00;99652.22;4345654;32;20088;-77
2021/11/04 00:45:26;;;;;;;4.82;4.20;;;;;;;4.84;100.00;99664.31;4388501;32;20567;-76
2021/11/04 00:47:52;;;;;;;5.30;5.00;;;;;;;5.66;100.00;99801.91;4345306;32;20092;-76
2021/11/04 00:50:17;;;;;;;3.40;3.30;;;;;;;4.74;100.00;99643.06;4346730;32;20077;-77
2021/11/04 00:52:43;;;;;;;5.37;5.03;;;;;;;5.51;100.00;99780.03;4344689;32;20059;-76
2021/11/04 00:55:08;;;;;;;3.50;3.40;;;;;;;3.19;100.00;99422.28;4331214;32;20062;-77
2021/11/04 00:57:34;;;;;;;3.60;3.50;;;;;;;5.72;100.00;99803.37;4397814;32;20077;-76
2021/11/04 00:59:59;;;;;;;4.90;4.70;;;;;;;5.00;100.00;99695.66;4356670;32;20068;-77
2021/11/04 01:02:24;;;;;;;3.50;3.40;;;;;;;5.92;100.00;99855.38;4347574;32;20197;-76
2021/11/04 01:04:50;;;;;;;6.15;5.85;;;;;;;5.94;100.00;99861.34;4340416;32;20556;-77
2021/11/04 01:07:15;;;;;;;4.47;4.22;;;;;;;5.93;100.00;99861.41;4331296;32;20310;-77
2021/11/04 01:09:40;;;;;;;5.72;5.43;;;;;;;4.85;100.00;99691.13;4356909;32;20057;-76
2021/11/04 01:12:06;;;;;;;3.78;3.60;;;;;;;5.90;100.00;99862.41;4396589;32;20897;-77
2021/11/04 01:14:31;;;;;;;3.33;3.22;;;;;;;5.68;100.00;99820.91;4358736;32;20341;-76
2021/11/04 01:16:57;;;;;;;4.85;4.60;;;;;;;5.13;100.00;99733.19;4349014;32;20671;-77
2021/11/04 01:19:22;;;;;;;3.40;3.30;;;;;;;5.84;100.00;99849.66;4389140;32;20112;-77
2021/11/04 01:21:48;;;;;;;4.82;4.62;;;;;;;5.86;100.00;99845.22;4393477;32;20060;-76
2021/11/04 01:24:13;;;;;;;3.40;3.30;;;;;;;5.19;100.00;99745.94;4388883;32;20066;-75
2021/11/04 01:26:38;;;;;;;3.90;3.70;;;;;;;5.58;100.00;99810.06;4396599;32;20577;-76
2021/11/04 01:29:04;;;;;;;4.50;4.20;;;;;;;5.86;100.00;99855.66;4394231;32;20058;-78
2021/11/04 01:31:29;;;;;;;3.40;3.30;;;;;;;2.47;100.00;99321.63;4337207;32;20097;-78
2021/11/04 01:33:55;;;;;;;4.40;4.20;;;;;;;5.45;100.00;99815.88;4408351;32;20300;-78
2021/11/04 01:36:20;;;;;;;3.40;3.30;;;;;;;4.56;100.00;99714.06;4348579;32;20581;-78
2021/11/04 01:38:45;;;;;;;5.40;5.18;;;;;;;5.63;100.00;99840.22;4342961;32;20359;-78
2021/11/04 01:41:11;;;;;;;3.42;3.33;;;;;;;5.66;100.00;99845.31;4364466;32;20463;-76
2021/11/04 01:43:36;;;;;;;3.60;3.50;;;;;;;4.70;100.00;99688.31;4400325;32;20062;-76
2021/11/04 01:46:02;;;;;;;4.28;4.07;;;;;;;5.78;100.00;99869.00;4333517;32;20337;-76
2021/11/04 01:48:27;;;;;;;3.90;3.65;;;;;;;5.79;100.00;99867.25;4329186;32;20059;-77
2021/11/04 01:50:53;;;;;;;6.30;5.93;;;;;;;5.68;100.00;99843.47;4359658;32;20090;-76
2021/11/04 01:53:19;;;;;;;3.62;3.45;;;;;;;5.02;100.00;99737.19;4332931;32;20212;-76
2021/11/04 01:55:45;;;;;;;3.85;3.65;;;;;;;5.78;100.00;99873.38;4323779;32;20075;-77
2021/11/04 01:58:11;;;;;;;3.60;3.50;;;;;;;5.75;100.00;99866.56;4384296;32;20085;-78
2021/11/04 02:00:39;;;;;;;3.42;3.33;;;;;;;5.42;100.00;99821.25;4396437;32;20701;-75
2021/11/04 02:03:14;;;;;;;4.05;3.85;;;;;;;5.70;100.00;99878.09;4385554;32;20085;-76
2021/11/04 02:05:52;;;;;;;3.67;3.58;;;;;;;5.52;100.00;99844.16;4332794;32;20124;-75
2021/11/04 02:08:21;;;;;;;3.30;3.20;;;;;;;5.42;100.00;99875.88;4382513;32;20382;-75
2021/11/04 02:10:55;;;;;;;5.07;4.87;;;;;;;5.63;100.00;99867.09;4378522;32;20071;-76
2021/11/04 02:13:21;;;;;;;4.20;4.00;;;;;;;5.66;100.00;99866.97;4378561;32;20631;-78
2021/11/04 02:15:46;;;;;;;4.82;4.62;;;;;;;5.28;100.00;99814.06;4332649;32;20066;-76
2021/11/04 02:18:12;;;;;;;4.12;3.95;;;;;;;5.62;100.00;99867.19;4385941;32;20093;-76
2021/11/04 02:21:15;;;;;;;4.25;4.03;;;;;;;5.63;100.00;99856.69;4388845;32;20074;-77
2021/11/04 02:23:43;;;;;;;3.83;3.67;;;;;;;5.67;100.00;99853.03;4349340;32;20501;-76
2021/11/04 02:26:09;;;;;;;3.70;3.55;;;;;;;5.60;100.00;99862.88;4390840;32;20078;-78
2021/11/04 02:28:36;;;;;;;3.30;3.20;;;;;;;5.43;100.00;99839.38;4339849;32;20063;-76
2021/11/04 02:31:02;;;;;;;3.50;3.40;;;;;;;5.58;100.00;99853.47;4387130;32;20798;-76
2021/11/04 02:33:28;;;;;;;3.30;3.20;;;;;;;4.58;100.00;99688.84;4377928;32;20066;-78
2021/11/04 02:35:53;;;;;;;5.07;4.87;;;;;;;5.59;100.00;99866.41;4382668;32;20084;-76
2021/11/04 02:38:19;;;;;;;5.40;5.10;;;;;;;4.79;100.00;99737.28;4331450;32;20089;-75
2021/11/04 02:40:45;;;;;;;4.68;4.47;;;;;;;4.31;100.00;99670.97;4322272;32;20086;-76
2021/11/04 02:43:11;;;;;;;4.70;4.50;;;;;;;5.33;100.00;99840.69;4378593;32;20168;-78
2021/11/04 02:45:37;;;;;;;4.90;4.60;;;;;;;4.17;100.00;99647.34;4383819;32;20084;-77
2021/11/04 02:48:02;;;;;;;3.75;3.62;;;;;;;5.30;100.00;99838.25;4331172;32;20071;-78
2021/11/04 02:50:28;;;;;;;3.50;3.40;;;;;;;5.47;100.00;99864.37;4383126;32;20639;-79
2021/11/04 02:52:55;;;;;;;4.50;4.30;;;;;;;5.43;100.00;99870.59;4388568;32;20095;-78
2021/11/04 02:55:34;;;;;;;3.72;3.53;;;;;;;5.45;100.00;99886.13;4333412;32;20077;-78
2021/11/04 02:58:05;;;;;;;3.45;3.35;;;;;;;5.36;100.00;99890.00;4352587;32;20086;-79
2021/11/04 03:00:31;;;;;;;3.55;3.40;;;;;;;4.29;100.00;99690.09;4348869;32;20126;-79
2021/11/04 03:02:56;;;;;;;3.60;3.47;;;;;;;5.43;100.00;99896.59;4382402;32;20071;-77
2021/11/04 03:05:21;;;;;;;5.50;3.97;;;;;;;5.11;100.00;99844.25;4356578;32;20062;-79
2021/11/04 03:07:47;;;;;;;4.82;4.37;;;;;;;3.93;100.00;99652.66;4385894;32;20062;-79
2021/11/04 03:10:12;;;;;;;3.83;3.65;;;;;;;4.96;100.00;99824.94;4388318;32;20059;-78
2021/11/04 03:12:38;;;;;;;5.70;4.80;;;;;;;5.12;100.00;99855.50;4384117;32;20075;-78
2021/11/04 03:15:03;;;;;;;3.60;3.50;;;;;;;5.19;100.00;99895.91;4320203;32;20112;-79
2021/11/04 03:17:29;;;;;;;3.55;3.45;;;;;;;5.42;100.00;99907.09;4331426;32;20468;-79
2021/11/04 03:19:54;;;;;;;4.15;3.95;;;;;;;5.44;100.00;99908.72;4335242;32;20402;-79
2021/11/04 03:22:20;;;;;;;4.25;4.05;;;;;;;5.02;100.00;99849.84;4337434;32;20090;-78
2021/11/04 03:24:45;;;;;;;5.25;4.95;;;;;;;5.40;100.00;99909.78;4348864;32;20121;-78
2021/11/04 03:27:11;;;;;;;4.07;3.78;;;;;;;4.85;100.00;99821.97;4348307;32;20394;-78
2021/11/04 03:29:40;;;;;;;3.47;3.37;;;;;;;5.40;100.00;99907.16;4375992;32;20075;-80
2021/11/04 03:32:07;;;;;;;3.47;3.37;;;;;;;5.08;100.00;99859.97;4332247;32;20094;-79
2021/11/04 03:34:32;;;;;;;3.90;3.70;;;;;;;5.06;100.00;99864.41;4335559;32;20067;-78
2021/11/04 03:36:58;;;;;;;4.00;3.80;;;;;;;5.14;100.00;99857.09;4384025;32;20451;-78
2021/11/04 03:39:23;;;;;;;4.00;3.78;;;;;;;1.06;100.00;99232.25;4383822;32;20115;-78
2021/11/04 03:41:51;;;;;;;4.68;4.47;;;;;;;1.13;100.00;99220.81;4333999;32;20066;-78
2021/11/04 03:44:19;;;;;;;4.95;4.75;;;;;;;3.76;100.00;99652.50;4332558;32;20534;-78
2021/11/04 03:46:45;;;;;;;4.85;4.65;;;;;;;5.14;100.00;99867.50;4341672;32;20086;-78
2021/11/04 03:49:15;;;;;;;5.95;5.50;;;;;;;5.01;100.00;99842.94;4342859;32;20299;-78
2021/11/04 03:51:40;;;;;;;4.75;4.55;;;;;;;3.07;100.00;99508.31;4341572;32;20079;-78
2021/11/04 03:54:06;;;;;;;3.50;3.40;;;;;;;5.30;100.00;99898.91;4338026;32;20633;-78
2021/11/04 03:56:31;;;;;;;3.30;3.20;;;;;;;5.31;100.00;99891.94;4356441;32;20070;-78
2021/11/04 03:58:57;;;;;;;4.45;4.20;;;;;;;5.28;100.00;99897.31;4387778;32;20136;-77
2021/11/04 04:01:22;;;;;;;4.90;4.53;;;;;;;3.71;100.00;99644.91;4351290;32;20102;-79
2021/11/04 04:03:47;;;;;;;4.68;4.47;;;;;;;4.57;100.00;99780.69;4340811;32;20089;-78
2021/11/04 04:06:13;;;;;;;3.37;3.28;;;;;;;4.53;100.00;99771.34;4338671;32;20085;-79
2021/11/04 04:08:45;;;;;;;4.15;3.95;;;;;;;5.00;100.00;99856.87;4386453;32;20699;-79
2021/11/04 04:11:10;;;;;;;3.20;3.10;;;;;;;4.05;100.00;99700.62;4407285;32;20073;-79
2021/11/04 04:13:36;;;;;;;3.67;3.58;;;;;;;4.00;100.00;99734.53;4348670;32;20148;-78
2021/11/04 04:16:01;;;;;;;4.70;4.40;;;;;;;5.22;100.00;99908.81;4346123;32;20622;-79
2021/11/04 04:18:26;;;;;;;3.60;3.50;;;;;;;4.91;100.00;99867.62;4350739;32;20077;-79
2021/11/04 04:20:52;;;;;;;4.90;4.70;;;;;;;2.73;100.00;99553.69;4397656;32;20484;-78
2021/11/04 04:23:18;;;;;;;3.30;3.20;;;;;;;4.82;100.00;99862.84;4383697;32;20066;-79
2021/11/04 04:25:44;;;;;;;4.80;4.60;;;;;;;3.82;100.00;99709.34;4368147;32;20071;-78
2021/11/04 04:28:09;;;;;;;5.93;3.75;;;;;;;5.20;100.00;99945.28;4386532;32;20125;-78
2021/11/04 04:30:34;;;;;;;3.60;3.50;;;;;;;5.19;100.00;99943.59;4346846;32;20071;-78
2021/11/04 04:33:00;;;;;;;3.30;3.20;;;;;;;4.99;100.00;99921.03;4362437;32;20487;-78
2021/11/04 04:35:25;;;;;;;3.10;3.00;;;;;;;4.36;100.00;99811.00;4346290;32;20087;-77
2021/11/04 04:37:51;;;;;;;5.18;4.90;;;;;;;4.36;100.00;99816.22;4341988;32;20066;-77
2021/11/04 04:40:16;;;;;;;4.20;4.00;;;;;;;5.08;100.00;99932.78;4344648;32;20089;-77
2021/11/04 04:42:41;;;;;;;4.85;4.65;;;;;;;4.14;100.00;99779.87;4344287;32;20569;-78
2021/11/04 04:45:07;;;;;;;4.10;3.92;;;;;;;5.30;100.00;99973.53;4332091;32;20453;-78
2021/11/04 04:47:48;;;;;;;13.88;13.18;;;;;;;5.06;100.00;99952.81;4302469;32;20188;-79
2021/11/04 04:50:13;;;;;;;4.22;4.00;;;;;;;4.73;100.00;99890.91;4383424;32;20076;-78
2021/11/04 04:52:42;;;;;;;4.18;3.95;;;;;;;3.91;100.00;99801.53;4386701;32;20137;-76
2021/11/04 04:55:07;;;;;;;3.15;3.05;;;;;;;4.46;100.00;99866.88;4363191;32;20153;-76
2021/11/04 04:57:33;;;;;;;3.60;3.50;;;;;;;5.13;100.00;99972.47;4392764;32;20094;-76
2021/11/04 04:59:59;;;;;;;3.20;3.10;;;;;;;3.64;100.00;99733.41;4333240;32;20667;-78
2021/11/04 05:02:25;;;;;;;3.35;3.25;;;;;;;4.63;100.00;99884.41;4384951;32;20121;-78
2021/11/04 05:04:51;;;;;;;4.18;3.97;;;;;;;4.97;100.00;99958.38;4336668;32;20170;-78
2021/11/04 05:07:16;;;;;;;3.30;3.20;;;;;;;5.15;100.00;99981.06;4335091;32;20086;-79
2021/11/04 05:09:42;;;;;;;3.83;3.72;;;;;;;5.18;100.00;99980.06;4355887;32;20510;-78
2021/11/04 05:12:07;;;;;;;3.80;3.60;;;;;;;4.54;100.00;99874.38;4397431;32;20072;-78
2021/11/04 05:14:33;;;;;;;3.50;3.40;;;;;;;4.93;100.00;99952.50;4390976;32;20066;-78
2021/11/04 05:16:58;;;;;;;3.87;3.75;;;;;;;3.75;100.00;99765.00;4348035;32;20596;-78
2021/11/04 05:19:23;;;;;;;3.40;3.30;;;;;;;4.88;100.00;99948.37;4355230;32;20181;-78
2021/11/04 05:21:49;;;;;;;4.53;4.32;;;;;;;4.19;100.00;99832.50;4332834;32;20087;-80
2021/11/04 05:24:14;;;;;;;3.90;3.70;;;;;;;4.56;100.00;99867.34;4345227;32;20457;-78
2021/11/04 05:26:40;;;;;;;4.03;3.83;;;;;;;5.25;100.00;100007.53;4335800;32;20059;-78
2021/11/04 05:29:05;;;;;;;3.65;3.55;;;;;;;5.10;100.00;99963.94;4395486;32;20103;-77
2021/11/04 05:31:31;;;;;;;3.53;3.42;;;;;;;4.39;100.00;99870.66;4343751;32;20066;-77
2021/11/04 05:33:56;;;;;;;4.18;3.97;;;;;;;4.82;100.00;99941.66;4349675;32;20076;-77
2021/11/04 05:36:22;;;;;;;5.55;4.25;;;;;;;4.99;100.00;99972.16;4355930;32;20184;-78
2021/11/04 05:38:47;;;;;;;4.35;4.15;;;;;;;4.62;100.00;99910.44;4405352;32;20074;-78
2021/11/04 05:41:13;;;;;;;5.25;4.75;;;;;;;4.92;100.00;99961.19;4391444;32;20078;-79
2021/11/04 05:43:38;;;;;;;4.65;4.40;;;;;;;3.51;100.00;99746.03;4350593;32;20088;-78
2021/11/04 05:46:04;;;;;;;3.97;3.67;;;;;;;3.85;100.00;99778.44;4405176;32;20091;-80
2021/11/04 05:48:29;;;;;;;3.65;3.47;;;;;;;4.02;100.00;99808.94;4375122;32;20095;-79
2021/11/04 05:50:54;;;;;;;4.75;4.43;;;;;;;4.77;100.00;99936.66;4392794;32;20390;-79
2021/11/04 05:53:20;;;;;;;3.65;3.45;;;;;;;4.15;100.00;99841.28;4341553;32;20099;-79
2021/11/04 05:55:46;;;;;;;4.82;4.55;;;;;;;4.71;100.00;99933.44;4383644;32;20129;-79
2021/11/04 05:58:11;;;;;;;15.88;4.15;;;;;;;4.44;100.00;99893.84;4356584;32;20090;-78
2021/11/04 06:00:36;;;;;;;3.17;3.08;;;;;;;5.03;100.00;99998.91;4386914;32;20408;-79
2021/11/04 06:03:02;;;;;;;3.30;3.20;;;;;;;4.76;100.00;99947.13;4384350;32;20093;-78
2021/11/04 06:05:27;;;;;;;3.50;3.40;;;;;;;4.83;100.00;99958.97;4388565;32;20577;-78
2021/11/04 06:07:53;;;;;;;4.95;4.75;;;;;;;4.96;100.00;99969.72;4340780;32;20169;-77
2021/11/04 06:10:18;;;;;;;3.95;3.75;;;;;;;4.65;100.00;99915.50;4386901;32;20082;-79
2021/11/04 06:12:43;;;;;;;5.20;5.00;;;;;;;3.63;100.00;99755.94;4381505;32;20619;-76
2021/11/04 06:15:09;;;;;;;4.82;4.60;;;;;;;5.10;100.00;99995.16;4381771;32;20237;-76
2021/11/04 06:17:35;;;;;;;3.20;3.10;;;;;;;4.45;100.00;99891.19;4324155;32;20426;-75
2021/11/04 06:20:00;;;;;;;3.72;3.55;;;;;;;4.31;100.00;99873.56;4381529;32;20439;-77
2021/11/04 06:22:25;;;;;;;3.47;3.37;;;;;;;5.10;100.00;99997.75;4335325;32;20522;-77
2021/11/04 06:24:51;;;;;;;4.85;4.65;;;;;;;4.93;100.00;99975.88;4379091;32;20075;-78
2021/11/04 06:27:16;;;;;;;3.80;3.65;;;;;;;3.29;100.00;99691.56;4371448;32;20078;-76
2021/11/04 06:29:41;;;;;;;5.55;5.25;;;;;;;3.94;100.00;99810.06;4391177;32;20572;-79
2021/11/04 06:32:07;;;;;;;3.75;3.65;;;;;;;4.82;100.00;99948.63;4384099;32;20062;-79
2021/11/04 06:34:32;;;;;;;3.92;3.67;;;;;;;5.02;100.00;99985.06;4319029;32;20469;-78
2021/11/04 06:36:58;;;;;;;3.45;3.35;;;;;;;5.01;100.00;99980.75;4315618;32;20074;-76
2021/11/04 06:39:23;;;;;;;3.33;3.22;;;;;;;5.16;100.00;100002.72;4385232;32;20075;-76
2021/11/04 06:41:49;;;;;;;5.25;5.05;;;;;;;4.88;100.00;99951.81;4386786;32;20086;-77
2021/11/04 06:44:14;;;;;;;3.17;3.08;;;;;;;5.20;100.00;100002.50;4381358;32;20067;-77
2021/11/04 06:46:41;;;;;;;4.28;4.10;;;;;;;5.19;100.00;100003.44;4387092;32;20137;-76
2021/11/04 06:49:07;;;;;;;4.87;4.55;;;;;;;5.14;100.00;99997.56;4347020;32;20082;-77
2021/11/04 06:51:38;;;;;;;3.50;3.35;;;;;;;5.13;100.00;99977.69;4328660;32;20066;-78
2021/11/04 06:54:03;;;;;;;3.33;3.22;;;;;;;5.14;100.00;99981.94;4364566;32;20120;-77
2021/11/04 06:56:34;;;;;;;4.12;3.70;;;;;;;5.29;100.00;100029.91;4352685;32;20086;-78
2021/11/04 06:59:00;;;;;;;3.30;3.20;;;;;;;5.23;100.00;100011.09;4362867;32;20067;-76
2021/11/04 07:01:25;;;;;;;3.92;3.72;;;;;;;5.27;100.00;100010.94;4419756;32;20096;-77
2021/11/04 07:03:57;;;;;;;4.80;4.47;;;;;;;5.20;100.00;100012.91;4349474;32;20217;-77
2021/11/04 07:06:28;;;;;;;3.42;3.33;;;;;;;5.13;100.00;100008.88;4426257;32;20096;-77
2021/11/04 07:08:56;;;;;;;6.43;6.12;;;;;;;5.29;100.00;100016.91;4389915;32;20810;-74
2021/11/04 07:11:23;;;;;;;3.30;3.20;;;;;;;5.20;100.00;100031.13;4342991;32;20105;-75
2021/11/04 07:13:49;;;;;;;5.87;5.57;;;;;;;5.19;100.00;100028.56;4391212;32;20143;-71
2021/11/04 07:16:14;;;;;;;3.85;3.65;;;;;;;5.23;100.00;100035.34;4323782;32;20081;-72
2021/11/04 07:18:40;;;;;;;4.43;4.22;;;;;;;5.12;100.00;100011.53;4390922;32;20902;-76
2021/11/04 07:21:11;;;;;;;3.97;3.67;;;;;;;5.22;100.00;100035.44;4369672;32;20079;-76
2021/11/04 07:23:58;;;;;;;3.40;3.30;;;;;;;5.25;100.00;100040.50;4342302;32;20070;-76
2021/11/04 07:26:29;;;;;;;4.28;3.75;;;;;;;5.30;100.00;100041.16;4331857;32;21850;-76
2021/11/04 07:28:54;;;;;;;5.85;5.55;;;;;;;4.63;100.00;99926.00;4401302;32;20133;-72
2021/11/04 07:31:21;;;;;;;3.72;3.53;;;;;;;5.24;100.00;100031.84;4351118;32;20584;-76
2021/11/04 07:33:46;;;;;;;7.10;5.50;;;;;;;4.95;100.00;99965.41;4390052;32;20197;-72
2021/11/04 07:36:14;;;;;;;4.55;4.35;;;;;;;5.47;100.00;100051.72;4385679;32;20551;-76
2021/11/04 07:38:39;;;;;;;3.95;3.80;;;;;;;5.48;100.00;100052.56;4342300;32;20075;-77
2021/11/04 07:41:05;;;;;;;3.17;3.08;;;;;;;5.36;100.00;100022.69;4368170;32;20069;-75
2021/11/04 07:43:31;;;;;;;3.40;3.30;;;;;;;5.59;100.00;100061.63;4350956;32;20669;-77
2021/11/04 07:45:57;;;;;;;4.15;3.95;;;;;;;5.23;100.00;100008.50;4381041;32;20091;-77
2021/11/04 07:48:23;;;;;;;4.47;4.28;;;;;;;5.65;100.00;100068.31;4360465;32;20078;-77
2021/11/04 07:50:49;;;;;;;5.43;4.95;;;;;;;5.56;100.00;100037.47;4336754;32;20089;-74
2021/11/04 07:53:15;;;;;;;3.50;3.40;;;;;;;5.82;100.00;100069.38;4339966;32;20200;-75
2021/11/04 07:55:41;;;;;;;4.53;4.32;;;;;;;5.83;100.00;100069.28;4393533;32;20066;-74
2021/11/04 07:58:06;;;;;;;3.53;3.42;;;;;;;5.87;100.00;100073.44;4366068;32;20087;-72
2021/11/04 08:00:31;;;;;;;3.40;3.30;;;;;;;5.80;100.00;100080.69;4350120;32;21007;-72
2021/11/04 08:02:57;;;;;;;3.67;3.53;;;;;;;5.91;100.00;100071.56;4396425;32;20063;-75
2021/11/04 08:05:23;;;;;;;3.80;3.60;;;;;;;5.68;100.00;100065.59;4332252;32;20074;-74
2021/11/04 08:07:49;;;;;;;5.10;4.90;;;;;;;5.60;100.00;100073.72;4328574;32;20379;-76
2021/11/04 08:10:15;;;;;;;4.15;3.85;;;;;;;5.53;100.00;100024.56;4342342;32;20600;-75
2021/11/04 08:12:41;;;;;;;4.25;4.05;;;;;;;4.89;100.00;99909.31;4412945;32;20273;-76
2021/11/04 08:15:08;;;;;;;3.80;3.60;;;;;;;6.14;100.00;100109.69;4362399;32;20155;-78
2021/11/04 08:17:34;;;;;;;3.47;3.37;;;;;;;5.72;100.00;100022.06;4353678;32;20624;-77
2021/11/04 08:19:59;;;;;;;4.47;4.28;;;;;;;6.02;100.00;100077.22;4349210;32;20097;-75
2021/11/04 08:22:24;;;;;;;3.50;3.40;;;;;;;6.23;100.00;100116.25;4391577;32;20087;-76
2021/11/04 08:24:50;;;;;;;4.62;4.43;;;;;;;5.98;100.00;100081.69;4352201;32;20078;-78
2021/11/04 08:27:16;;;;;;;3.70;3.60;;;;;;;6.08;100.00;100118.63;4381550;32;20085;-78
2021/11/04 08:29:41;;;;;;;4.32;4.12;;;;;;;6.05;100.00;100121.34;4334219;32;20687;-80
2021/11/04 08:32:08;;;;;;;3.50;3.40;;;;;;;4.95;100.00;99942.00;4393915;32;20070;-78
2021/11/04 08:34:34;;;;;;;3.50;3.30;;;;;;;5.60;100.00;100071.13;4390269;32;20074;-78
2021/11/04 08:36:59;;;;;;;4.00;3.80;;;;;;;5.83;100.00;100110.12;4350353;32;20374;-77
2021/11/04 08:39:25;;;;;;;4.72;4.53;;;;;;;5.73;100.00;100086.22;4356730;32;20100;-81
2021/11/04 08:41:50;;;;;;;4.57;4.37;;;;;;;5.44;100.00;100043.19;4340058;32;20088;-82
2021/11/04 08:44:15;;;;;;;4.12;3.92;;;;;;;5.82;100.00;100147.50;4364543;32;20087;-78
2021/11/04 08:46:41;;;;;;;4.50;4.30;;;;;;;5.07;100.00;100044.69;4341106;32;20075;-79
2021/11/04 08:49:06;;;;;;;4.78;4.57;;;;;;;4.98;100.00;100028.53;4350488;32;20724;-81
2021/11/04 08:51:32;;;;;;;3.97;3.78;;;;;;;5.76;100.00;100154.63;4403001;32;20090;-74
2021/11/04 08:54:00;;;;;;;4.72;4.53;;;;;;;5.42;100.00;100103.09;4344645;32;20089;-75
2021/11/04 08:56:26;;;;;;;4.35;3.95;;;;;;;5.60;100.00;100133.59;4398657;32;20143;-75
2021/11/04 08:58:51;;;;;;;5.25;5.05;;;;;;;5.85;100.00;100156.00;4354939;32;20147;-77
2021/11/04 09:01:17;;;;;;;3.45;3.35;;;;;;;5.88;100.00;100160.25;4335365;32;20143;-77
2021/11/04 09:03:43;;;;;;;4.95;4.65;;;;;;;4.64;100.00;99966.66;4343213;32;20067;-75
2021/11/04 09:06:08;;;;;;;4.00;3.80;;;;;;;4.59;100.00;99953.84;4333374;32;20149;-74
2021/11/04 09:08:33;;;;;;;4.20;4.00;;;;;;;6.09;100.00;100169.78;4342698;32;20466;-74
2021/11/04 09:10:59;;;;;;;4.53;4.32;;;;;;;5.87;100.00;100133.34;4344720;32;20078;-74
2021/11/04 09:13:24;;;;;;;3.70;3.60;;;;;;;6.27;99.90;100162.94;4379692;32;20066;-74
2021/11/04 09:15:50;;;;;;;5.65;5.35;;;;;;;6.06;99.40;100119.59;4388304;32;20137;-75
2021/11/04 09:18:17;;;;;;;4.50;4.22;;;;;;;6.44;98.90;100164.00;4318684;32;20111;-74
2021/11/04 09:20:43;;;;;;;5.93;5.62;;;;;;;5.45;98.12;100000.63;4343498;32;20152;-74
2021/11/04 09:23:09;;;;;;;3.50;3.40;;;;;;;6.52;97.77;100167.13;4323262;32;20066;-76
2021/11/04 09:25:36;;;;;;;3.60;3.50;;;;;;;6.13;96.73;100127.09;4392335;32;20093;-76
2021/11/04 09:28:01;;;;;;;3.65;3.53;;;;;;;6.28;96.39;100142.97;4332424;32;20489;-76
2021/11/04 09:30:26;;;;;;;4.10;3.90;;;;;;;6.56;96.78;100176.50;4336164;32;20081;-80
2021/11/04 09:32:53;;;;;;;4.65;4.45;;;;;;;6.68;96.03;100175.94;4354202;32;20348;-77
2021/11/04 09:35:18;;;;;;;3.80;3.67;;;;;;;6.72;95.58;100181.88;4391901;32;20640;-76
2021/11/04 09:37:44;;;;;;;4.90;4.70;;;;;;;6.88;95.72;100179.44;4318878;32;20089;-73
2021/11/04 09:40:10;;;;;;;3.62;3.53;;;;;;;5.52;95.80;99955.25;4331505;32;20106;-77
2021/11/04 09:42:35;;;;;;;3.95;3.75;;;;;;;7.23;95.19;100171.75;4361514;32;20163;-74
2021/11/04 09:45:01;;;;;;;4.32;4.12;;;;;;;6.64;94.01;100079.69;4390686;32;20086;-77
2021/11/04 09:47:29;;;;;;;4.00;3.80;;;;;;;7.21;93.29;100179.63;4341837;32;20552;-77
2021/11/04 09:49:59;;;;;;;5.05;4.85;;;;;;;7.05;93.30;100181.25;4337800;32;21015;-77
2021/11/04 09:52:26;;;;;;;3.80;3.70;;;;;;;7.18;94.23;100188.47;4348946;32;20084;-76
2021/11/04 09:54:52;;;;;;;5.32;5.12;;;;;;;7.32;93.88;100186.97;4331687;32;20190;-76
2021/11/04 09:57:17;;;;;;;3.80;3.67;;;;;;;7.50;93.92;100187.88;4345849;32;20074;-74
2021/11/04 09:59:43;;;;;;;4.68;4.47;;;;;;;7.56;93.40;100185.81;4333871;32;20078;-77
2021/11/04 10:02:22;;;;;;;4.05;3.85;;;;;;;7.17;93.27;100178.09;4345112;32;20583;-77
2021/11/04 10:04:47;;;;;;;6.20;5.30;;;;;;;7.30;93.73;100204.47;4356778;32;20116;-77
2021/11/04 10:07:13;;;;;;;4.00;3.80;;;;;;;6.63;93.84;100072.78;4395195;32;20999;-78
2021/11/04 10:09:39;;;;;;;4.62;4.43;;;;;;;7.33;94.16;100171.22;4405170;32;20075;-77
2021/11/04 10:12:12;;;;;;;4.03;3.72;;;;;;;7.50;93.99;100201.78;4391560;32;20647;-75
2021/11/04 10:14:37;;;;;;;5.68;4.03;;;;;;;7.31;93.53;100195.72;4333173;32;20094;-76
2021/11/04 10:17:03;;;;;;;3.95;3.80;;;;;;;7.52;93.38;100212.16;4343327;32;21070;-75
2021/11/04 10:19:39;;;;;;;4.28;4.07;;;;;;;7.73;94.55;100210.25;4335153;32;20067;-72
2021/11/04 10:22:04;;;;;;;3.60;3.47;;;;;;;7.86;93.78;100203.53;4388681;32;20097;-73
2021/11/04 10:24:30;;;;;;;4.32;4.12;;;;;;;7.87;93.73;100207.81;4341412;32;20077;-73
2021/11/04 10:26:56;;;;;;;6.90;5.30;;;;;;;7.78;93.59;100205.69;4393288;32;20472;-73
2021/11/04 10:29:23;;;;;;;4.30;4.10;;;;;;;7.77;92.96;100183.06;4337435;32;20075;-73
2021/11/04 10:31:51;;;;;;;5.37;5.18;;;;;;;7.98;94.15;100210.78;4337823;32;20112;-73
2021/11/04 10:34:33;;;;;;;4.20;4.00;;;;;;;8.09;94.06;100210.22;4396122;32;20090;-74
2021/11/04 10:37:09;;;;;;;4.80;4.60;;;;;;;8.22;93.34;100197.41;4343042;32;20968;-73
2021/11/04 10:39:37;;;;;;;4.10;3.90;;;;;;;8.48;93.73;100200.47;4358453;32;20531;-74
2021/11/04 10:42:03;;;;;;;4.35;4.05;;;;;;;8.53;92.48;100194.09;4339185;32;20268;-75
2021/11/04 10:44:30;;;;;;;4.40;4.20;;;;;;;8.53;92.95;100147.00;4387077;32;20449;-76
2021/11/04 10:46:57;;;;;;;5.72;5.43;;;;;;;8.92;91.21;100197.28;4339141;32;20682;-75
2021/11/04 10:49:22;;;;;;;4.07;3.87;;;;;;;8.17;90.89;100047.78;4368794;32;20096;-75
2021/11/04 10:51:54;;;;;;;5.12;4.93;;;;;;;9.28;90.44;100199.72;4328114;32;20667;-76
2021/11/04 10:54:20;;;;;;;3.90;3.80;;;;;;;9.15;90.33;100196.91;4346863;32;20143;-75
2021/11/04 10:56:45;;;;;;;5.18;4.97;;;;;;;9.13;90.35;100197.94;4349951;32;20561;-77
2021/11/04 10:59:12;;;;;;;4.82;4.40;;;;;;;8.64;90.20;100169.13;4366674;32;20065;-74
2021/11/04 11:01:41;;;;;;;4.25;4.05;;;;;;;8.61;90.54;100169.31;4344878;32;20561;-73
2021/11/04 11:04:09;;;;;;;5.05;4.75;;;;;;;8.87;91.65;100191.47;4380651;32;20074;-75
2021/11/04 11:06:36;;;;;;;4.80;4.50;;;;;;;8.99;90.08;100198.66;4335838;32;20124;-75
2021/11/04 11:09:05;;;;;;;5.68;5.12;;;;;;;8.84;90.11;100196.84;4407370;32;20086;-76
2021/11/04 11:11:30;;;;;;;5.18;4.87;;;;;;;8.89;91.84;100205.31;4380928;32;20704;-75
2021/11/04 11:13:56;;;;;;;5.35;5.05;;;;;;;8.45;90.70;100161.41;4327018;32;20083;-77
2021/11/04 11:16:21;;;;;;;4.55;4.25;;;;;;;8.82;91.46;100203.94;4404625;32;20625;-75
2021/11/04 11:18:47;;;;;;;5.90;5.35;;;;;;;8.39;91.63;100129.38;4352482;32;20086;-75
2021/11/04 11:21:12;;;;;;;4.10;3.90;;;;;;;8.97;91.97;100203.13;4335792;32;20148;-75
2021/11/04 11:23:38;;;;;;;4.50;4.20;;;;;;;7.94;90.67;100042.00;4390978;32;20078;-74
2021/11/04 11:26:04;;;;;;;4.50;4.30;;;;;;;9.21;90.71;100202.75;4344221;32;20082;-75
2021/11/04 11:28:34;;;;;;;4.57;4.37;;;;;;;8.42;90.33;100070.03;4382231;32;20116;-74